Time;durP1;ratioP1;P1;durP2;ratioP2;P2;SDS_P1;SDS_P2;PMS_P1;PMS_P2;Temp;Humidity;BMP_temperature;BMP_pressure;BME280_temperature;BME280_humidity;BME280_pressure;Samples;Min_cycle;Max_cycle;Signal;HPM_P1;HPM_P2
2023/09/20 00:01:26;;;;;;;7.32;2.63;;;11.90;99.90;;;;;;5107874;28;20031;-71
2023/09/20 00:03:52;;;;;;;4.25;2.20;;;11.80;99.90;;;;;;5105678;28;20081;-71
2023/09/20 00:06:18;;;;;;;5.03;2.50;;;11.80;99.90;;;;;;5111186;28;20035;-71
2023/09/20 00:08:47;;;;;;;3.83;2.05;;;11.80;99.90;;;;;;5107186;28;20027;-71
2023/09/20 00:11:15;;;;;;;4.20;2.08;;;11.70;99.90;;;;;;5106120;28;20043;-71
2023/09/20 00:13:46;;;;;;;3.92;2.10;;;11.70;99.90;;;;;;5107252;28;20110;-71
2023/09/20 00:16:12;;;;;;;5.07;2.70;;;11.70;99.90;;;;;;5102347;28;20032;-71
2023/09/20 00:18:38;;;;;;;7.85;2.25;;;11.70;99.90;;;;;;5108091;28;20055;-72
2023/09/20 00:21:04;;;;;;;5.88;2.40;;;11.60;99.90;;;;;;5086413;28;20036;-71
2023/09/20 00:23:29;;;;;;;10.23;2.20;;;11.50;99.90;;;;;;5110004;28;20055;-71
2023/09/20 00:25:55;;;;;;;5.68;2.30;;;11.50;99.90;;;;;;5106307;28;20030;-71
2023/09/20 00:28:21;;;;;;;8.15;2.42;;;11.50;99.90;;;;;;5106466;28;20031;-70
2023/09/20 00:30:47;;;;;;;4.97;2.30;;;11.50;99.90;;;;;;5108843;28;20043;-71
2023/09/20 00:33:16;;;;;;;4.88;2.60;;;11.60;99.90;;;;;;5108767;28;20383;-71
2023/09/20 00:35:42;;;;;;;4.95;2.55;;;11.60;99.90;;;;;;5108558;28;20032;-71
2023/09/20 00:38:08;;;;;;;5.15;2.47;;;11.60;99.90;;;;;;5104597;28;20024;-71
2023/09/20 00:40:35;;;;;;;4.68;2.28;;;11.60;99.90;;;;;;5101190;28;20038;-71
2023/09/20 00:43:06;;;;;;;5.20;2.20;;;11.60;99.90;;;;;;5107189;28;20024;-71
2023/09/20 00:45:32;;;;;;;4.90;1.92;;;11.60;99.90;;;;;;5086922;28;20036;-70
2023/09/20 00:47:58;;;;;;;4.55;2.33;;;11.60;99.90;;;;;;5102835;28;20058;-70
2023/09/20 00:50:31;;;;;;;4.38;2.03;;;11.50;99.90;;;;;;5106836;28;20037;-71
2023/09/20 00:52:57;;;;;;;7.07;2.60;;;11.50;99.90;;;;;;5109246;28;20162;-70
2023/09/20 00:55:27;;;;;;;6.38;2.95;;;11.50;99.90;;;;;;5110526;28;20045;-70
2023/09/20 00:57:56;;;;;;;4.97;2.40;;;11.50;99.90;;;;;;5088453;28;20050;-70
2023/09/20 01:00:29;;;;;;;4.10;2.30;;;11.50;99.90;;;;;;5106898;28;20097;-72
2023/09/20 01:02:57;;;;;;;6.47;2.20;;;11.50;99.90;;;;;;5108701;28;20032;-71
2023/09/20 01:05:25;;;;;;;3.58;2.20;;;11.50;99.90;;;;;;5106019;28;20478;-70
2023/09/20 01:07:56;;;;;;;4.32;2.33;;;11.40;99.90;;;;;;5106243;28;20024;-70
2023/09/20 01:10:23;;;;;;;;;;;11.40;99.90;;;;;;5109514;28;20031;-72
2023/09/20 01:12:54;;;;;;;4.50;2.10;;;11.40;99.90;;;;;;5102966;28;19934;-70
2023/09/20 01:15:21;;;;;;;7.32;2.90;;;11.40;99.90;;;;;;5105287;28;20027;-71
2023/09/20 01:17:48;;;;;;;4.85;2.22;;;11.30;99.90;;;;;;5104591;28;20039;-71
2023/09/20 01:20:15;;;;;;;7.20;2.28;;;11.30;99.90;;;;;;5107881;28;20381;-70
2023/09/20 01:22:41;;;;;;;4.00;2.45;;;11.30;99.90;;;;;;5100888;28;20024;-72
2023/09/20 01:25:16;;;;;;;4.53;2.30;;;11.30;99.90;;;;;;5106938;28;20022;-71
2023/09/20 01:27:42;;;;;;;3.90;2.28;;;11.20;99.90;;;;;;5104227;28;20028;-72
2023/09/20 01:30:08;;;;;;;6.90;2.45;;;11.10;99.90;;;;;;5105093;28;20031;-70
2023/09/20 01:32:36;;;;;;;3.92;2.35;;;11.10;99.90;;;;;;5109406;28;20043;-71
2023/09/20 01:35:02;;;;;;;4.47;2.75;;;11.10;99.90;;;;;;5103655;28;20031;-70
2023/09/20 01:37:28;;;;;;;3.45;2.38;;;11.10;99.90;;;;;;5079389;28;20492;-70
2023/09/20 01:39:54;;;;;;;8.10;2.72;;;11.10;99.90;;;;;;5105939;28;20035;-70
2023/09/20 01:42:21;;;;;;;7.20;2.80;;;11.20;99.90;;;;;;5107234;28;20039;-70
2023/09/20 01:44:49;;;;;;;7.43;2.60;;;11.20;99.90;;;;;;5105263;28;20020;-71
2023/09/20 01:47:15;;;;;;;3.88;2.28;;;11.20;99.90;;;;;;5104608;28;20051;-70
2023/09/20 01:49:41;;;;;;;5.32;2.30;;;11.20;99.90;;;;;;5107778;28;20036;-72
2023/09/20 01:52:08;;;;;;;5.53;2.53;;;11.10;99.90;;;;;;5102290;28;20035;-70
2023/09/20 01:54:34;;;;;;;5.57;2.38;;;11.10;99.90;;;;;;5103948;28;20553;-70
2023/09/20 01:57:00;;;;;;;12.38;2.78;;;11.00;99.90;;;;;;5105490;28;20164;-70
2023/09/20 01:59:26;;;;;;;4.13;2.38;;;11.00;99.90;;;;;;5106751;28;20384;-70
2023/09/20 02:01:51;;;;;;;4.68;2.67;;;11.00;99.90;;;;;;5106989;28;20027;-70
2023/09/20 02:04:18;;;;;;;5.53;2.78;;;10.90;99.90;;;;;;5106206;28;20024;-70
2023/09/20 02:06:46;;;;;;;5.32;2.45;;;11.00;99.90;;;;;;5106341;28;20112;-71
2023/09/20 02:09:13;;;;;;;3.83;2.22;;;10.90;99.90;;;;;;5106291;28;20110;-70
2023/09/20 02:11:38;;;;;;;4.72;2.08;;;10.90;99.90;;;;;;5107105;28;20032;-70
2023/09/20 02:14:04;;;;;;;4.65;2.17;;;10.80;99.90;;;;;;5103955;28;20037;-71
2023/09/20 02:16:32;;;;;;;5.65;2.35;;;10.80;99.90;;;;;;5102966;28;20455;-70
2023/09/20 02:18:58;;;;;;;3.45;2.10;;;10.80;99.90;;;;;;5096498;28;20032;-70
2023/09/20 02:21:24;;;;;;;8.80;2.30;;;10.70;99.90;;;;;;5107056;28;20042;-70
2023/09/20 02:23:56;;;;;;;4.93;2.40;;;10.70;99.90;;;;;;5105675;28;20027;-70
2023/09/20 02:26:22;;;;;;;10.68;2.33;;;10.70;99.90;;;;;;5107104;28;20060;-70
2023/09/20 02:28:48;;;;;;;6.40;2.72;;;10.70;99.90;;;;;;5107491;28;20031;-70
2023/09/20 02:31:17;;;;;;;4.70;2.45;;;10.80;99.90;;;;;;5103141;28;20399;-70
2023/09/20 02:33:42;;;;;;;4.85;2.25;;;10.80;99.90;;;;;;5108241;28;20476;-72
2023/09/20 02:36:10;;;;;;;5.75;2.97;;;10.80;99.90;;;;;;5107539;28;20027;-70
2023/09/20 02:38:37;;;;;;;4.30;2.50;;;10.80;99.90;;;;;;5108289;28;20023;-70
2023/09/20 02:41:03;;;;;;;4.75;2.75;;;10.80;99.90;;;;;;5107706;28;20027;-70
2023/09/20 02:43:29;;;;;;;6.22;3.33;;;10.80;99.90;;;;;;5107481;28;20124;-70
2023/09/20 02:45:59;;;;;;;8.38;2.80;;;10.80;99.90;;;;;;5108481;28;20506;-70
2023/09/20 02:48:26;;;;;;;6.43;2.50;;;10.70;99.90;;;;;;5099622;28;20048;-70
2023/09/20 02:50:52;;;;;;;9.60;2.63;;;10.60;99.90;;;;;;5097589;28;20076;-70
2023/09/20 02:53:18;;;;;;;7.35;2.63;;;10.50;99.90;;;;;;5102729;28;20134;-69
2023/09/20 02:55:45;;;;;;;11.07;3.53;;;10.50;99.90;;;;;;5106084;28;20027;-72
2023/09/20 02:58:12;;;;;;;5.30;2.40;;;10.50;99.90;;;;;;5108429;28;20216;-71
2023/09/20 03:00:46;;;;;;;5.30;3.00;;;10.50;99.90;;;;;;5105224;28;20040;-70
2023/09/20 03:03:15;;;;;;;4.90;2.60;;;10.50;99.90;;;;;;5104516;28;20027;-70
2023/09/20 03:05:41;;;;;;;5.03;2.58;;;10.50;99.90;;;;;;5106743;28;20615;-70
2023/09/20 03:08:11;;;;;;;5.53;2.72;;;10.60;99.90;;;;;;5101495;28;20122;-72
2023/09/20 03:10:38;;;;;;;5.22;2.58;;;10.50;99.90;;;;;;5104934;28;20024;-70
2023/09/20 03:13:05;;;;;;;5.53;2.95;;;10.50;99.90;;;;;;5102428;28;20036;-70
2023/09/20 03:15:32;;;;;;;6.97;2.75;;;10.60;99.90;;;;;;5111809;28;20032;-70
2023/09/20 03:18:00;;;;;;;4.68;2.50;;;10.60;99.90;;;;;;5109937;28;20039;-70
2023/09/20 03:20:26;;;;;;;5.05;2.60;;;10.50;99.90;;;;;;5112932;28;20028;-70
2023/09/20 03:22:54;;;;;;;4.78;2.60;;;10.40;99.90;;;;;;5111451;27;20023;-71
2023/09/20 03:25:20;;;;;;;6.15;2.20;;;10.30;99.90;;;;;;5112637;28;20036;-70
2023/09/20 03:27:50;;;;;;;4.22;2.30;;;10.20;99.90;;;;;;5112454;28;20024;-71
2023/09/20 03:30:16;;;;;;;3.33;2.10;;;10.20;99.90;;;;;;5111565;28;20024;-71
2023/09/20 03:32:49;;;;;;;5.65;2.10;;;10.30;99.90;;;;;;5110004;28;20035;-70
2023/09/20 03:35:15;;;;;;;5.22;2.30;;;10.30;99.90;;;;;;5112836;28;20039;-71
2023/09/20 03:37:43;;;;;;;5.57;2.30;;;10.30;99.90;;;;;;5107136;28;20028;-71
2023/09/20 03:40:10;;;;;;;5.80;2.33;;;10.30;99.90;;;;;;5106271;28;20032;-69
2023/09/20 03:42:42;;;;;;;4.05;2.40;;;10.30;99.90;;;;;;5112681;28;20118;-70
2023/09/20 03:45:11;;;;;;;7.28;2.55;;;10.20;99.90;;;;;;5093669;28;20023;-69
2023/09/20 03:47:45;;;;;;;6.15;2.67;;;10.30;99.90;;;;;;5103692;28;20044;-70
2023/09/20 03:50:11;;;;;;;5.05;2.58;;;10.30;99.90;;;;;;5110359;28;20035;-70
2023/09/20 03:52:37;;;;;;;5.97;2.38;;;10.30;99.90;;;;;;5111482;28;20036;-69
2023/09/20 03:55:04;;;;;;;4.75;2.42;;;10.30;99.90;;;;;;5092988;28;20035;-69
2023/09/20 03:57:29;;;;;;;6.63;2.80;;;10.20;99.90;;;;;;5085714;28;20110;-72
2023/09/20 03:59:58;;;;;;;3.95;2.20;;;10.20;99.90;;;;;;5106974;28;20475;-71
2023/09/20 04:02:24;;;;;;;5.22;2.67;;;10.10;99.90;;;;;;5110996;28;20062;-70
2023/09/20 04:04:53;;;;;;;8.60;2.63;;;10.10;99.90;;;;;;5111326;28;20028;-71
2023/09/20 04:07:23;;;;;;;4.78;2.72;;;10.10;99.90;;;;;;5111890;28;20051;-70
2023/09/20 04:09:49;;;;;;;4.88;2.40;;;10.10;99.90;;;;;;5110193;28;20555;-70
2023/09/20 04:12:15;;;;;;;9.10;2.75;;;10.10;99.90;;;;;;5110768;28;20063;-71
2023/09/20 04:14:43;;;;;;;5.63;2.78;;;10.10;99.90;;;;;;5111912;28;20098;-72
2023/09/20 04:17:09;;;;;;;6.35;2.50;;;10.20;99.90;;;;;;5109858;28;20028;-70
2023/09/20 04:19:39;;;;;;;7.72;2.70;;;10.30;99.90;;;;;;5111722;28;20031;-71
2023/09/20 04:22:08;;;;;;;6.90;2.58;;;10.30;99.90;;;;;;5109390;28;20031;-71
2023/09/20 04:24:34;;;;;;;4.43;2.58;;;10.30;99.90;;;;;;5110991;28;20031;-70
2023/09/20 04:27:02;;;;;;;3.80;2.20;;;10.20;99.90;;;;;;5108414;28;20040;-70
2023/09/20 04:29:31;;;;;;;7.38;2.17;;;10.10;99.90;;;;;;5111620;28;20039;-71
2023/09/20 04:31:57;;;;;;;6.28;2.60;;;10.10;99.90;;;;;;5111133;28;20058;-70
2023/09/20 04:34:23;;;;;;;4.55;2.00;;;10.10;99.90;;;;;;5110553;28;20035;-70
2023/09/20 04:36:51;;;;;;;8.02;2.53;;;10.10;99.90;;;;;;5111279;28;20034;-71
2023/09/20 04:39:17;;;;;;;4.75;2.50;;;10.10;99.90;;;;;;5111475;28;20019;-71
2023/09/20 04:41:43;;;;;;;6.47;2.17;;;10.10;99.90;;;;;;5109821;28;20027;-71
2023/09/20 04:44:09;;;;;;;10.77;2.70;;;10.10;99.90;;;;;;5105823;28;20032;-72
2023/09/20 04:46:35;;;;;;;5.28;2.60;;;10.20;99.90;;;;;;5109135;28;20039;-72
2023/09/20 04:49:03;;;;;;;4.93;2.40;;;10.10;99.90;;;;;;5109559;28;20058;-72
2023/09/20 04:51:30;;;;;;;5.25;2.13;;;10.10;99.90;;;;;;5113286;28;20142;-69
2023/09/20 04:53:56;;;;;;;6.13;2.50;;;10.10;99.90;;;;;;5113981;28;20024;-69
2023/09/20 04:56:22;;;;;;;6.18;2.20;;;10.10;99.90;;;;;;5106813;28;20043;-71
2023/09/20 04:58:49;;;;;;;4.38;2.28;;;10.10;99.90;;;;;;5111389;28;20027;-70
2023/09/20 05:01:15;;;;;;;5.68;2.35;;;10.10;99.90;;;;;;5109948;28;20038;-71
2023/09/20 05:03:41;;;;;;;5.93;2.72;;;10.10;99.90;;;;;;5108586;28;20035;-71
2023/09/20 05:06:07;;;;;;;5.90;2.80;;;10.10;99.90;;;;;;5107136;28;20016;-71
2023/09/20 05:08:32;;;;;;;3.80;2.38;;;10.10;99.90;;;;;;5109914;28;20115;-71
2023/09/20 05:10:58;;;;;;;5.13;3.00;;;10.00;99.90;;;;;;5109376;28;20142;-72
2023/09/20 05:13:24;;;;;;;7.65;3.00;;;10.10;99.90;;;;;;5109995;28;20035;-72
2023/09/20 05:15:53;;;;;;;6.45;2.83;;;10.10;99.90;;;;;;5109620;28;20084;-72
2023/09/20 05:18:20;;;;;;;4.78;2.28;;;10.00;99.90;;;;;;5109247;28;20042;-70
2023/09/20 05:20:45;;;;;;;5.57;2.60;;;10.00;99.90;;;;;;5110563;28;20058;-70
2023/09/20 05:23:12;;;;;;;5.20;2.72;;;10.00;99.90;;;;;;5107847;28;20058;-71
2023/09/20 05:25:37;;;;;;;5.20;2.83;;;10.00;99.90;;;;;;5110286;28;20023;-72
2023/09/20 05:28:04;;;;;;;6.57;2.42;;;10.00;99.90;;;;;;5110013;28;20042;-71
2023/09/20 05:30:31;;;;;;;5.28;2.40;;;10.00;99.90;;;;;;5109272;28;20096;-71
2023/09/20 05:32:56;;;;;;;4.63;2.58;;;10.20;99.90;;;;;;5109235;28;20042;-72
2023/09/20 05:35:22;;;;;;;6.38;2.25;;;10.20;99.90;;;;;;5090604;28;20379;-71
2023/09/20 05:37:48;;;;;;;4.28;2.20;;;10.20;99.90;;;;;;5109408;28;20066;-72
2023/09/20 05:40:21;;;;;;;6.80;2.53;;;10.30;99.90;;;;;;5108053;28;20102;-72
2023/09/20 05:42:50;;;;;;;4.22;2.30;;;10.40;99.90;;;;;;5109354;28;20036;-72
2023/09/20 05:45:16;;;;;;;4.90;2.60;;;10.50;99.90;;;;;;5107558;28;20573;-72
2023/09/20 05:47:43;;;;;;;3.17;2.03;;;10.50;99.90;;;;;;5109703;28;20050;-71
2023/09/20 05:50:14;;;;;;;6.32;3.10;;;10.60;99.90;;;;;;5109234;28;20028;-71
2023/09/20 05:52:43;;;;;;;7.47;3.15;;;10.70;99.90;;;;;;5089448;28;20040;-70
2023/09/20 05:55:11;;;;;;;8.75;2.50;;;10.70;99.90;;;;;;5107972;28;20057;-70
2023/09/20 05:57:38;;;;;;;6.07;2.35;;;10.80;99.90;;;;;;5109763;28;20023;-72
2023/09/20 06:00:18;;;;;;;10.57;2.47;;;10.90;99.90;;;;;;5107718;28;20086;-72
2023/09/20 06:02:44;;;;;;;6.53;2.90;;;11.00;99.90;;;;;;5109100;28;20035;-71
2023/09/20 06:05:18;;;;;;;5.68;2.72;;;11.10;99.90;;;;;;5107798;28;20028;-71
2023/09/20 06:07:44;;;;;;;6.65;3.00;;;11.00;99.90;;;;;;5106854;28;20660;-72
2023/09/20 06:10:13;;;;;;;7.47;2.58;;;10.90;99.90;;;;;;5108530;28;20084;-70
2023/09/20 06:12:39;;;;;;;7.22;2.90;;;10.70;99.90;;;;;;5109548;28;20039;-74
2023/09/20 06:15:07;;;;;;;7.25;2.13;;;10.60;99.90;;;;;;5107189;28;20035;-72
2023/09/20 06:17:33;;;;;;;5.18;2.70;;;10.60;99.90;;;;;;5091507;28;20036;-73
2023/09/20 06:20:07;;;;;;;6.25;2.78;;;10.70;99.90;;;;;;5108478;28;20080;-70
2023/09/20 06:22:33;;;;;;;4.95;2.55;;;10.80;99.90;;;;;;5106602;28;20122;-70
2023/09/20 06:24:59;;;;;;;6.72;3.03;;;11.00;99.90;;;;;;5107503;28;20825;-71
2023/09/20 06:27:30;;;;;;;5.97;2.67;;;11.10;99.90;;;;;;5075582;28;20045;-72
2023/09/20 06:29:56;;;;;;;4.95;2.50;;;11.10;99.90;;;;;;5109059;28;20067;-69
2023/09/20 06:32:22;;;;;;;7.32;3.05;;;11.20;99.90;;;;;;5108910;28;20027;-71
2023/09/20 06:34:48;;;;;;;6.47;2.67;;;11.30;99.90;;;;;;5107044;28;20342;-71
2023/09/20 06:37:14;;;;;;;5.50;2.70;;;11.40;99.90;;;;;;5107884;28;20035;-73
2023/09/20 06:39:41;;;;;;;5.25;2.75;;;11.40;99.90;;;;;;5107749;28;20031;-72
2023/09/20 06:42:08;;;;;;;24.88;4.10;;;11.60;99.90;;;;;;5098158;28;20023;-72
2023/09/20 06:44:38;;;;;;;15.98;3.30;;;11.70;99.90;;;;;;5088780;28;20046;-69
2023/09/20 06:47:08;;;;;;;14.95;2.90;;;11.80;99.90;;;;;;5088205;28;20070;-71
2023/09/20 06:49:34;;;;;;;21.05;3.17;;;11.90;99.90;;;;;;5096667;28;20027;-71
2023/09/20 06:52:03;;;;;;;10.82;3.15;;;12.00;99.90;;;;;;5102431;28;20330;-70
2023/09/20 06:54:35;;;;;;;6.65;3.13;;;12.00;99.90;;;;;;5108116;28;20084;-71
2023/09/20 06:57:03;;;;;;;6.03;3.15;;;12.10;99.90;;;;;;5106115;28;20442;-70
2023/09/20 06:59:33;;;;;;;6.40;3.10;;;12.10;99.90;;;;;;5106298;28;20043;-71
2023/09/20 07:02:00;;;;;;;5.68;3.13;;;12.20;99.90;;;;;;5108407;28;20158;-71
2023/09/20 07:04:25;;;;;;;6.72;3.35;;;12.20;99.90;;;;;;5107263;28;20032;-71
2023/09/20 07:06:53;;;;;;;5.60;3.17;;;12.40;99.90;;;;;;5106038;28;20028;-72
2023/09/20 07:09:19;;;;;;;11.50;3.40;;;12.60;99.90;;;;;;5106951;28;20058;-72
2023/09/20 07:11:46;;;;;;;8.98;3.50;;;12.80;99.90;;;;;;5108660;28;20431;-72
2023/09/20 07:14:13;;;;;;;7.18;3.40;;;13.00;99.90;;;;;;5106314;28;20019;-72
2023/09/20 07:16:39;;;;;;;6.25;2.90;;;13.20;99.90;;;;;;5107901;28;20790;-72
2023/09/20 07:19:05;;;;;;;5.20;2.75;;;13.50;99.90;;;;;;5106529;28;20059;-70
2023/09/20 07:21:37;;;;;;;16.20;3.28;;;13.60;99.90;;;;;;5108632;28;20444;-75
2023/09/20 07:24:06;;;;;;;7.18;2.70;;;13.80;99.90;;;;;;5106871;28;20024;-71
2023/09/20 07:26:32;;;;;;;9.63;2.75;;;14.00;99.90;;;;;;5107528;28;20114;-74
2023/09/20 07:28:59;;;;;;;7.18;3.33;;;14.20;99.90;;;;;;5070031;28;20035;-73
2023/09/20 07:31:26;;;;;;;6.72;2.85;;;14.40;99.90;;;;;;5099169;28;20086;-72
2023/09/20 07:33:54;;;;;;;6.28;2.75;;;14.60;99.90;;;;;;5108661;28;20027;-71
2023/09/20 07:36:20;;;;;;;7.78;2.80;;;14.80;99.90;;;;;;5107898;28;20114;-73
2023/09/20 07:38:46;;;;;;;9.23;2.88;;;14.90;99.90;;;;;;5106224;28;20448;-71
2023/09/20 07:41:17;;;;;;;9.90;2.88;;;15.00;99.90;;;;;;5106750;28;20035;-71
2023/09/20 07:43:44;;;;;;;5.55;2.80;;;15.20;99.90;;;;;;5108349;28;20032;-71
2023/09/20 07:46:13;;;;;;;9.60;2.83;;;15.40;99.90;;;;;;5107727;28;20040;-72
2023/09/20 07:48:47;;;;;;;14.90;2.85;;;15.50;99.90;;;;;;5106938;28;20054;-72
2023/09/20 07:51:19;;;;;;;5.43;2.63;;;15.70;99.90;;;;;;5099409;28;20047;-75
2023/09/20 07:53:47;;;;;;;5.70;2.95;;;15.90;99.90;;;;;;5097801;28;20031;-74
2023/09/20 07:56:13;;;;;;;5.13;2.40;;;16.10;99.90;;;;;;5106716;28;20036;-72
2023/09/20 07:58:40;;;;;;;8.45;2.60;;;16.20;99.90;;;;;;5109628;28;20703;-71
2023/09/20 08:01:12;;;;;;;6.63;2.47;;;16.50;99.90;;;;;;5111621;28;20038;-74
2023/09/20 08:03:53;;;;;;;5.22;2.20;;;16.70;99.90;;;;;;5110021;28;20023;-76
2023/09/20 08:06:25;;;;;;;4.57;2.17;;;16.90;99.90;;;;;;5111404;28;20405;-74
2023/09/20 08:08:51;;;;;;;4.13;2.22;;;17.00;99.90;;;;;;5110905;28;20403;-73
2023/09/20 08:11:17;;;;;;;6.35;2.30;;;17.20;99.90;;;;;;5109310;28;20031;-73
2023/09/20 08:13:43;;;;;;;5.82;2.25;;;17.40;99.90;;;;;;5110901;28;20022;-73
2023/09/20 08:16:10;;;;;;;3.65;2.03;;;17.60;99.90;;;;;;5108169;28;20032;-72
2023/09/20 08:21:20;;;;;;;7.60;2.20;;;17.90;99.90;;;;;;5111111;28;20081;-71
2023/09/20 08:59:51;;;;;;;3.75;1.50;;;20.40;99.90;;;;;;5109897;28;20035;-71
2023/09/20 09:02:17;;;;;;;5.32;1.50;;;20.40;99.90;;;;;;5107827;28;20036;-71
2023/09/20 09:04:54;;;;;;;3.13;1.50;;;20.50;99.90;;;;;;5110373;28;20098;-73
2023/09/20 09:07:23;;;;;;;2.13;1.23;;;20.50;99.90;;;;;;5102515;28;20023;-76
2023/09/20 09:09:50;;;;;;;5.53;1.52;;;20.50;99.90;;;;;;5109804;28;20066;-73
2023/09/20 09:12:16;;;;;;;8.73;1.42;;;20.50;99.90;;;;;;5110145;28;20055;-71
2023/09/20 09:14:42;;;;;;;5.57;1.50;;;20.60;99.90;;;;;;5110021;28;20098;-71
2023/09/20 09:17:09;;;;;;;7.05;1.25;;;20.60;99.90;;;;;;5108991;28;20112;-70
2023/09/20 09:19:38;;;;;;;1.55;1.13;;;20.70;99.90;;;;;;5108686;28;20027;-70
2023/09/20 09:22:05;;;;;;;7.13;1.52;;;20.80;99.90;;;;;;5104527;28;20035;-72
2023/09/20 09:24:46;;;;;;;2.83;1.48;;;20.90;99.90;;;;;;5109418;28;20524;-73
2023/09/20 09:27:12;;;;;;;5.38;1.50;;;21.00;99.90;;;;;;5108976;28;20035;-75
2023/09/20 09:29:38;;;;;;;5.82;1.75;;;21.00;99.90;;;;;;5109558;28;20028;-74
2023/09/20 09:32:05;;;;;;;4.63;1.50;;;21.00;99.90;;;;;;5109521;28;20031;-74
2023/09/20 09:34:31;;;;;;;1.98;1.20;;;21.20;99.90;;;;;;5107589;28;20536;-75
2023/09/20 09:36:57;;;;;;;5.22;1.65;;;21.30;99.90;;;;;;5095054;28;20098;-74
2023/09/20 09:39:25;;;;;;;6.70;1.52;;;21.30;99.90;;;;;;5107894;28;20107;-77
2023/09/20 09:41:51;;;;;;;3.83;1.85;;;21.40;99.90;;;;;;5110473;28;20102;-74
2023/09/20 09:44:17;;;;;;;2.58;1.58;;;21.60;99.90;;;;;;5108330;28;20027;-75
2023/09/20 09:46:43;;;;;;;5.30;1.55;;;21.80;99.90;;;;;;5109730;28;20383;-74
2023/09/20 09:49:12;;;;;;;4.53;1.63;;;21.90;99.90;;;;;;5109804;28;20060;-73
2023/09/20 09:51:45;;;;;;;5.38;1.65;;;21.90;99.90;;;;;;5107918;28;20051;-72
2023/09/20 09:54:12;;;;;;;4.22;1.70;;;22.10;99.90;;;;;;5107862;28;20039;-70
2023/09/20 09:56:38;;;;;;;3.30;1.42;;;22.30;99.90;;;;;;5089798;28;20059;-71
2023/09/20 09:59:05;;;;;;;5.53;1.50;;;22.20;99.90;;;;;;5091340;28;20282;-72
2023/09/20 10:01:36;;;;;;;5.18;1.33;;;22.20;99.90;;;;;;5102665;28;20036;-74
2023/09/20 10:04:10;;;;;;;2.72;1.45;;;22.20;99.90;;;;;;5106541;28;20073;-73
2023/09/20 10:06:41;;;;;;;2.58;1.38;;;22.10;99.90;;;;;;5106863;28;20032;-73
2023/09/20 10:09:13;;;;;;;3.65;1.52;;;22.00;99.90;;;;;;5097206;28;20035;-72
2023/09/20 10:11:41;;;;;;;2.72;1.42;;;22.00;99.90;;;;;;5099469;28;20464;-73
2023/09/20 10:14:09;;;;;;;2.83;1.40;;;22.30;99.90;;;;;;5096647;28;20024;-74
2023/09/20 10:16:35;;;;;;;3.72;1.60;;;22.50;99.90;;;;;;5106538;28;20037;-73
2023/09/20 10:19:02;;;;;;;4.63;1.40;;;22.60;99.90;;;;;;5098249;28;20074;-74
2023/09/20 10:21:31;;;;;;;3.15;1.55;;;22.70;99.90;;;;;;5105600;28;20589;-74
2023/09/20 10:23:59;;;;;;;3.00;1.50;;;22.90;99.90;;;;;;5096924;28;20081;-73
2023/09/20 10:26:26;;;;;;;3.05;1.83;;;23.00;99.90;;;;;;5103271;28;20035;-73
2023/09/20 10:29:11;;;;;;;4.05;1.55;;;23.20;99.90;;;;;;5108311;28;20019;-73
2023/09/20 10:31:39;;;;;;;2.53;1.55;;;23.10;99.90;;;;;;5103497;28;20028;-73
2023/09/20 10:34:05;;;;;;;2.70;1.52;;;23.00;99.90;;;;;;5109332;28;20028;-74
2023/09/20 10:36:31;;;;;;;4.65;1.90;;;22.90;99.90;;;;;;5106816;28;20039;-74
2023/09/20 10:39:17;;;;;;;3.85;1.70;;;22.90;99.90;;;;;;5107185;28;20123;-75
2023/09/20 10:41:48;;;;;;;5.05;2.00;;;22.90;99.90;;;;;;5088905;28;20625;-73
2023/09/20 10:44:31;;;;;;;3.22;1.75;;;22.70;99.90;;;;;;5087994;28;20035;-71
2023/09/20 10:46:58;;;;;;;3.55;2.05;;;22.60;99.90;;;;;;5098780;28;20036;-72
2023/09/20 10:49:50;;;;;;;10.80;1.92;;;22.60;99.90;;;;;;5106902;28;20457;-72
2023/09/20 10:52:31;;;;;;;4.03;1.65;;;22.80;99.90;;;;;;5104480;28;20044;-75
2023/09/20 10:55:18;;;;;;;2.97;1.67;;;22.90;99.90;;;;;;5107996;28;20020;-71
2023/09/20 10:57:47;;;;;;;3.13;1.70;;;23.00;99.90;;;;;;5095219;28;20123;-74
2023/09/20 11:00:14;;;;;;;3.58;2.10;;;23.10;99.90;;;;;;5098289;28;20533;-71
2023/09/20 11:02:42;;;;;;;6.68;2.63;;;23.20;99.90;;;;;;5107728;28;20073;-72
2023/09/20 11:05:11;;;;;;;4.88;1.60;;;23.10;99.90;;;;;;5107862;28;20027;-71
2023/09/20 11:07:41;;;;;;;4.38;2.10;;;23.50;99.90;;;;;;5107041;28;20034;-71
2023/09/20 11:10:11;;;;;;;4.72;2.25;;;23.90;99.90;;;;;;5109401;28;20475;-73
2023/09/20 11:12:36;;;;;;;3.70;1.88;;;24.00;99.90;;;;;;5107375;28;20036;-72
2023/09/20 11:15:05;;;;;;;3.10;1.88;;;24.00;99.90;;;;;;5106128;28;20073;-72
2023/09/20 11:17:31;;;;;;;2.97;2.10;;;24.20;99.90;;;;;;5108149;28;20483;-72
2023/09/20 11:20:00;;;;;;;3.47;1.70;;;24.30;99.90;;;;;;5107085;28;20042;-71
2023/09/20 11:22:26;;;;;;;3.10;1.50;;;24.50;99.90;;;;;;5107388;28;20055;-71
2023/09/20 11:24:55;;;;;;;3.60;1.90;;;24.80;99.90;;;;;;5107397;28;20031;-71
2023/09/20 11:27:23;;;;;;;3.47;2.13;;;24.60;99.90;;;;;;5108071;28;20065;-72
2023/09/20 11:29:49;;;;;;;4.70;1.90;;;24.40;99.90;;;;;;5107757;28;20043;-75
2023/09/20 11:32:17;;;;;;;2.85;1.95;;;24.10;99.90;;;;;;5106046;28;20043;-71
2023/09/20 11:34:50;;;;;;;3.92;2.08;;;24.10;99.90;;;;;;5110117;28;20369;-70
2023/09/20 11:37:22;;;;;;;4.45;1.70;;;24.40;99.90;;;;;;5114815;27;20055;-69
2023/09/20 11:39:49;;;;;;;4.25;1.90;;;24.60;99.90;;;;;;5112630;28;20023;-71
2023/09/20 11:42:43;;;;;;;6.93;1.70;;;25.00;99.90;;;;;;5110059;28;20088;-70
2023/09/20 11:45:10;;;;;;;4.40;2.03;;;25.00;99.10;;;;;;5106064;28;20027;-75
2023/09/20 11:47:42;;;;;;;5.25;1.70;;;25.10;99.90;;;;;;5108883;28;20052;-74
2023/09/20 11:50:15;;;;;;;3.65;1.85;;;25.10;99.90;;;;;;5110914;28;20032;-74
2023/09/20 11:52:47;;;;;;;8.98;1.60;;;25.20;99.90;;;;;;5110965;28;20040;-74
2023/09/20 11:55:14;;;;;;;3.70;1.60;;;25.00;99.30;;;;;;5112217;28;20053;-72
2023/09/20 11:57:46;;;;;;;4.75;1.75;;;24.70;97.80;;;;;;5111826;28;20633;-74
2023/09/20 12:00:19;;;;;;;5.35;1.77;;;24.70;99.90;;;;;;5110528;28;20028;-73
2023/09/20 12:02:46;;;;;;;3.53;1.95;;;25.00;99.00;;;;;;5107295;28;20023;-73
2023/09/20 12:05:12;;;;;;;3.45;2.00;;;24.80;98.70;;;;;;5111555;28;20032;-75
2023/09/20 12:07:38;;;;;;;5.57;1.70;;;25.10;98.70;;;;;;5109973;28;20050;-78
2023/09/20 12:10:06;;;;;;;5.35;1.85;;;25.20;98.70;;;;;;5112043;28;20035;-76
2023/09/20 12:12:33;;;;;;;6.22;1.80;;;25.00;95.80;;;;;;5107202;28;20050;-75
2023/09/20 12:14:58;;;;;;;1.80;1.52;;;24.90;99.00;;;;;;5111134;28;20063;-75
2023/09/20 12:17:24;;;;;;;3.92;1.60;;;25.20;98.60;;;;;;5110487;28;20531;-76
2023/09/20 12:19:50;;;;;;;2.78;1.92;;;25.60;97.00;;;;;;5111034;28;20044;-74
2023/09/20 12:22:16;;;;;;;10.35;1.60;;;25.40;98.00;;;;;;5110479;28;20040;-73
2023/09/20 12:24:42;;;;;;;8.80;1.80;;;25.20;98.70;;;;;;5091596;28;20408;-75
2023/09/20 12:27:07;;;;;;;2.92;1.60;;;25.10;98.00;;;;;;5109907;28;20028;-75
2023/09/20 12:29:33;;;;;;;6.10;1.75;;;25.00;97.10;;;;;;5109324;28;20028;-75
2023/09/20 12:31:59;;;;;;;4.93;1.45;;;25.00;99.20;;;;;;5108425;28;20855;-75
2023/09/20 12:34:25;;;;;;;3.30;1.50;;;25.10;96.90;;;;;;5110661;28;20092;-75
2023/09/20 12:36:51;;;;;;;4.30;1.42;;;25.20;97.60;;;;;;5111718;28;20032;-78
2023/09/20 12:39:16;;;;;;;2.83;1.30;;;25.20;98.10;;;;;;5111148;28;20036;-74
2023/09/20 12:41:43;;;;;;;3.42;1.67;;;25.20;96.50;;;;;;5108295;28;20028;-76
2023/09/20 12:44:09;;;;;;;3.33;1.20;;;25.20;98.90;;;;;;5110939;28;20039;-73
2023/09/20 12:46:37;;;;;;;3.05;1.33;;;25.50;97.60;;;;;;5110113;28;20054;-78
2023/09/20 12:49:06;;;;;;;2.03;1.38;;;25.60;97.60;;;;;;5110493;28;20059;-74
2023/09/20 12:51:32;;;;;;;2.70;1.50;;;25.90;97.00;;;;;;5110552;28;20035;-75
2023/09/20 12:53:57;;;;;;;1.73;1.20;;;26.10;96.90;;;;;;5099717;28;20028;-75
2023/09/20 12:56:23;;;;;;;5.28;1.40;;;25.90;96.10;;;;;;5101027;28;20031;-74
2023/09/20 12:58:50;;;;;;;14.70;1.38;;;26.00;96.80;;;;;;5110207;28;20573;-75
2023/09/20 13:01:16;;;;;;;1.92;1.33;;;26.10;97.20;;;;;;5111236;28;20032;-75
2023/09/20 13:03:43;;;;;;;2.10;1.38;;;26.30;96.30;;;;;;5106380;28;20111;-78
2023/09/20 13:06:09;;;;;;;2.45;1.48;;;26.50;94.40;;;;;;5110467;28;20069;-74
2023/09/20 13:08:37;;;;;;;4.43;1.48;;;26.20;95.70;;;;;;5108105;28;20051;-76
2023/09/20 13:11:05;;;;;;;4.03;1.50;;;26.10;95.50;;;;;;5110111;28;20059;-73
2023/09/20 13:13:31;;;;;;;3.88;1.30;;;25.80;96.30;;;;;;5108798;28;20111;-74
2023/09/20 13:15:57;;;;;;;2.40;1.38;;;26.00;96.30;;;;;;5085650;28;20072;-77
2023/09/20 13:18:23;;;;;;;2.00;1.30;;;26.20;96.60;;;;;;5104964;28;20047;-73
2023/09/20 13:20:49;;;;;;;3.72;1.40;;;26.30;96.00;;;;;;5110961;28;20034;-73
2023/09/20 13:23:15;;;;;;;7.32;1.80;;;26.50;94.80;;;;;;5110459;28;20055;-73
2023/09/20 13:25:42;;;;;;;8.18;2.00;;;26.30;94.30;;;;;;5109962;28;20023;-73
2023/09/20 13:28:08;;;;;;;5.13;1.55;;;26.10;95.60;;;;;;5109646;28;20100;-73